Etusivu
METAR-TAF:

METAR-TAF

Lentoasemat :

Mexicali, Meksiko

Leveyspiiri: 32-37-50N, Pituuspiiri: 115-14-30W, korkeus merenpinnasta: 22 m

Tämänhetkinen sää

Tämä raportti tehtiin 43 minuuttia sitten, kello 16.54 UTC
Tuuli 9 kn pohjoisen/luoteesta
Lämpötila 14°C
Kosteus 18%
Ilmanpaine 1024 hPa
Näkyvyys: 16.1 km
selkeää

METAR: MMML 271654Z 33009KT 10SM SKC 14/M10 A3023

Aika: 11:37 (17:37 UTC)

Sääennuste

Tämä raportti tehtiin 13 tuntia ja 19 minuuttia sitten, kello 04.18 UTC
Ennuste voimassa 27. päivästä klo 06 UTC - 28. päivään klo 06 UTC
Tuuli 10 kn pohjoisen/luoteesta
Näkyvyys: 10 km
selkeää
From 27. päivästä klo 1800 UTC
Tuuli 10 kn pohjoisesta
Näkyvyys: 10 km
selkeää
From 28. päivästä klo 0200 UTC
Tuuli 8 kn pohjoisen/luoteesta
Näkyvyys: 10 km
selkeää

TAF: MMML 270418Z 2706/2806 33010KT P6SM SKC FM271800 36010KT P6SM SKC FM280200 33008KT P6SM SKC

Säähavainnot ja -ennusteet yli 4000 lentoasemalta (METAR- ja TAF-raportit).

Käytössä olevat sääasemat on merkitty karttaan keltaisilla ja punaisilla pisteillä.

Aseta hiiri pisteen päälle nähdäksesi sääaseman nimen.

Klikkaa sitten nähdäksesi säähavainnot ja -ennusteet.

Kartan vaihtaminen: klikkaa mustalla rastilla varustettuja vihreitä pisteitä, niin voit zoomata sisään; viivalla varustettua vihreää pistettä, niin voit zoomata ulos tai vihreitä nuolia, niin pääset viereisille kartoille.


METAR-TAF: